Malpensa International Airport

LIMC · Lombardy, 意大利

罗盘
风向 的 风向 350° Malpensa International Airport 17L/35R
风: 6 kt, 2 beaufort

6 kt

改变
0 1.000 2.000 3.000 4.000 5.000
BKN 4.000 ft
METAR LIMC 040920Z 35006KT 9999 BKN040 19/13 Q1023 NOSIG

METAR Malpensa International Airport - LIMC/MXP

Malpensa International Airport是Milan,意大利中的大型机场。 该机场有2条跑道: 17L/35R 和 17R/35L. 该领域的国际民航组织标志是LIMC 它的国际航空运输协会代码是MXP.

这份报告是针对2022年10月4日 11:20, 当地时间在Malpensa International Airport进行的。

机场观察

风向为350°,速度为6 kt。

可见度为10 km 或者更多。

有碎云在4.000 ft的高度。 破损或更高的上限为4.000 ft。

温度和风寒是19 °C。 露点为13 °C,相对湿度为68%。 海平面上的气压为1023 hPa (QNH)。

白天

今天,太阳从07:27升起,在19:00降落。 这适用于Malpensa International Airport,世界夏令时可能有所不同。 当地时间与世界标准时间之间的时差为+2 小时。 夏令时目前正在进行中。

公司介绍

我们没有关于这个机场的公司信息。

体会

到Vliegles.nl去找飞行课程,跳伞和其他飞行体验。 浏览页面,了解Malpensa International Airport附近所有可用的活动。 你也可以使用搜索功能来寻找你所在地附近的特定飞行课程、跳伞或其他飞行体验。

跑道

Id 标题 侧风 逆风 侧风 %
17L/35R 170°-350° 6 kt 0 %
17R/35L 170°-350° 6 kt 0 %

逆风成分最大的方向会被突出显示,并用于横风计算。 这并不一定意味着这个方向在使用。

乌云

4.000 ft BKN 碎云

温度 & 天气

温度 19 °C
露点 13 °C
相对湿度 68%
Kp-index 2 (0-9)

白天

日出
07:27
中午
13:13
日落
19:00 (7h 06m)

小工具

你想在你的网站上有一个关于Malpensa International Airport的当前航空天气(METAR)的小部件吗?

</> 显示HTML代码

我们和第三方通过cookies跟踪您在我们网站上的上网行为。如果您继续,我们认为您同意我们的cookie政策。 了解更多